createdAt,value
2023-03-24T00:02:13.831Z,100.00
2023-03-24T00:05:38.523Z,100.00
2023-03-24T00:09:04.021Z,100.00
2023-03-24T00:12:28.048Z,100.00
2023-03-24T00:15:51.952Z,100.00
2023-03-24T00:19:16.189Z,100.00
2023-03-24T00:22:42.452Z,100.00
2023-03-24T00:26:15.354Z,100.00
2023-03-24T00:29:40.312Z,100.00
2023-03-24T00:33:04.458Z,100.00
2023-03-24T00:36:29.844Z,100.00
2023-03-24T00:39:54.195Z,100.00
2023-03-24T00:43:19.200Z,100.00
2023-03-24T00:46:46.340Z,100.00
2023-03-24T00:50:17.253Z,100.00
2023-03-24T00:53:43.760Z,100.00
2023-03-24T00:57:13.040Z,100.00
2023-03-24T01:00:42.481Z,100.00
2023-03-24T01:04:07.280Z,100.00
2023-03-24T01:07:31.760Z,100.00
2023-03-24T01:10:57.403Z,100.00
2023-03-24T01:14:21.508Z,100.00
2023-03-24T01:17:47.260Z,100.00
2023-03-24T01:21:13.264Z,100.00
2023-03-24T01:24:37.230Z,100.00
2023-03-24T01:28:01.176Z,100.00
2023-03-24T01:31:25.059Z,100.00
2023-03-24T01:34:49.294Z,100.00
2023-03-24T01:38:15.444Z,100.00
2023-03-24T01:41:42.372Z,100.00
2023-03-24T01:45:40.913Z,100.00
2023-03-24T01:49:09.215Z,100.00
2023-03-24T01:52:37.385Z,100.00
2023-03-24T01:56:03.360Z,100.00
2023-03-24T01:59:36.725Z,100.00
2023-03-24T02:03:12.709Z,100.00
2023-03-24T02:06:45.129Z,100.00
2023-03-24T02:10:14.604Z,100.00
2023-03-24T02:13:38.456Z,100.00
2023-03-24T02:17:23.937Z,100.00
2023-03-24T02:21:23.657Z,100.00
2023-03-24T02:25:12.618Z,100.00
2023-03-24T02:28:39.645Z,100.00
2023-03-24T02:32:33.257Z,100.00
2023-03-24T02:36:20.275Z,100.00
2023-03-24T02:40:07.053Z,100.00
2023-03-24T02:43:44.605Z,100.00
2023-03-24T02:47:19.038Z,100.00
2023-03-24T02:50:57.490Z,100.00
2023-03-24T02:54:48.362Z,100.00
2023-03-24T02:58:21.042Z,100.00
2023-03-24T03:02:05.296Z,100.00
2023-03-24T03:05:43.509Z,100.00
2023-03-24T03:09:12.399Z,100.00
2023-03-24T03:12:39.225Z,100.00
2023-03-24T03:16:10.541Z,100.00
2023-03-24T03:19:39.861Z,100.00
2023-03-24T03:23:14.378Z,100.00
2023-03-24T03:26:39.220Z,100.00
2023-03-24T03:30:12.317Z,100.00
2023-03-24T03:33:45.758Z,100.00
2023-03-24T03:37:44.827Z,100.00
2023-03-24T03:41:10.823Z,100.00
2023-03-24T03:44:35.496Z,100.00
2023-03-24T03:47:59.552Z,100.00
2023-03-24T03:51:23.650Z,100.00
2023-03-24T03:54:54.107Z,100.00
2023-03-24T03:58:18.082Z,100.00
2023-03-24T04:01:50.792Z,100.00
2023-03-24T04:06:19.861Z,100.00
2023-03-24T04:10:09.475Z,100.00
2023-03-24T04:14:11.433Z,100.00
2023-03-24T04:18:00.610Z,100.00
2023-03-24T04:21:59.480Z,100.00
2023-03-24T04:25:35.215Z,100.00
2023-03-24T04:29:19.605Z,100.00
2023-03-24T04:33:00.301Z,100.00
2023-03-24T04:36:42.811Z,100.00
2023-03-24T04:40:27.363Z,100.00
2023-03-24T04:43:51.781Z,100.00
2023-03-24T04:47:16.541Z,100.00
2023-03-24T04:50:57.432Z,100.00
2023-03-24T04:54:23.505Z,100.00
2023-03-24T04:57:50.407Z,100.00
2023-03-24T05:01:17.225Z,100.00
2023-03-24T05:04:45.940Z,100.00
2023-03-24T05:08:16.577Z,100.00
2023-03-24T05:11:40.920Z,100.00
2023-03-24T05:15:07.004Z,100.00
2023-03-24T05:18:33.867Z,100.00
2023-03-24T05:21:57.763Z,100.00
2023-03-24T05:25:22.030Z,100.00
2023-03-24T05:28:46.497Z,100.00
2023-03-24T05:32:11.120Z,100.00
2023-03-24T05:35:34.999Z,100.00
2023-03-24T05:38:59.066Z,100.00
2023-03-24T05:42:31.552Z,100.00
2023-03-24T05:45:57.588Z,100.00
2023-03-24T05:49:26.684Z,100.00
2023-03-24T05:52:52.719Z,100.00
2023-03-24T05:56:38.944Z,100.00
2023-03-24T06:00:11.370Z,100.00
2023-03-24T06:03:51.657Z,100.00
2023-03-24T06:07:16.588Z,100.00
2023-03-24T06:10:41.674Z,100.00
2023-03-24T06:14:05.757Z,100.00
2023-03-24T06:17:38.991Z,100.00
2023-03-24T06:21:08.622Z,100.00
2023-03-24T06:24:35.451Z,100.00
2023-03-24T06:28:06.627Z,100.00
2023-03-24T06:31:32.756Z,100.00
2023-03-24T06:34:56.991Z,100.00
2023-03-24T06:38:29.034Z,100.00
2023-03-24T06:41:53.490Z,100.00
2023-03-24T06:45:17.536Z,100.00
2023-03-24T06:48:45.073Z,100.00
2023-03-24T06:52:09.142Z,100.00
2023-03-24T06:55:35.736Z,100.00
2023-03-24T06:58:59.996Z,100.00
2023-03-24T07:02:34.525Z,100.00
2023-03-24T07:06:01.095Z,100.00
2023-03-24T07:09:24.965Z,100.00
2023-03-24T07:12:49.360Z,100.00
2023-03-24T07:16:13.499Z,100.00
2023-03-24T07:19:37.969Z,100.00
2023-03-24T07:23:25.786Z,100.00
2023-03-24T07:26:54.754Z,100.00
2023-03-24T07:30:27.278Z,100.00
2023-03-24T07:33:59.773Z,100.00
2023-03-24T07:37:25.773Z,100.00
2023-03-24T07:40:49.638Z,100.00
2023-03-24T07:44:13.759Z,100.00
2023-03-24T07:47:47.576Z,100.00
2023-03-24T07:51:11.631Z,100.00
2023-03-24T07:54:52.728Z,100.00
2023-03-24T07:58:39.805Z,100.00
2023-03-24T08:02:19.466Z,100.00
2023-03-24T08:05:49.427Z,100.00
2023-03-24T08:09:17.354Z,100.00
2023-03-24T08:12:41.941Z,100.00
2023-03-24T08:16:05.918Z,100.00
2023-03-24T08:19:30.049Z,100.00
2023-03-24T08:22:54.738Z,100.00
2023-03-24T08:26:19.869Z,100.00
2023-03-24T08:29:44.465Z,100.00
2023-03-24T08:33:08.983Z,100.00
2023-03-24T08:36:33.754Z,100.00
2023-03-24T08:39:58.870Z,100.00
2023-03-24T08:43:24.780Z,100.00
2023-03-24T08:46:49.019Z,100.00
2023-03-24T08:50:13.462Z,100.00
2023-03-24T08:53:39.999Z,100.00
2023-03-24T08:57:03.902Z,100.00
2023-03-24T09:00:29.075Z,100.00
2023-03-24T09:03:53.129Z,100.00
2023-03-24T09:07:17.091Z,100.00
2023-03-24T09:10:42.680Z,100.00
2023-03-24T09:14:06.925Z,100.00
2023-03-24T09:17:32.817Z,100.00
2023-03-24T09:20:57.509Z,100.00
2023-03-24T09:24:21.674Z,100.00
2023-03-24T09:27:45.967Z,100.00
2023-03-24T09:31:09.981Z,100.00
2023-03-24T09:34:34.600Z,99.86
2023-03-24T09:37:58.523Z,99.49
2023-03-24T09:41:29.402Z,96.92
2023-03-24T09:44:59.365Z,97.57
2023-03-24T09:48:47.947Z,98.74
2023-03-24T09:52:15.885Z,97.77
2023-03-24T09:55:43.283Z,96.60
2023-03-24T09:59:14.856Z,96.15
2023-03-24T10:02:39.120Z,94.00
2023-03-24T10:06:11.928Z,90.80
2023-03-24T10:09:37.446Z,86.71
2023-03-24T10:13:33.913Z,85.91
2023-03-24T10:17:15.477Z,83.60
2023-03-24T10:20:46.684Z,81.06
2023-03-24T10:24:38.364Z,81.60
2023-03-24T10:28:39.305Z,80.70
2023-03-24T10:32:30.245Z,80.57
2023-03-24T10:36:12.563Z,79.26
2023-03-24T10:39:44.613Z,78.97
2023-03-24T10:43:09.647Z,78.86
2023-03-24T10:46:34.646Z,77.34
2023-03-24T10:50:14.864Z,77.67
2023-03-24T10:53:39.762Z,75.64
2023-03-24T10:57:08.227Z,75.48
2023-03-24T11:00:33.644Z,73.25
2023-03-24T11:04:07.292Z,72.21
2023-03-24T11:07:36.518Z,72.25
2023-03-24T11:11:00.892Z,71.22
2023-03-24T11:14:28.983Z,69.75
2023-03-24T11:18:01.727Z,68.23
2023-03-24T11:21:27.696Z,67.02
2023-03-24T11:24:56.177Z,67.18
2023-03-24T11:28:27.950Z,68.97
2023-03-24T11:31:57.494Z,67.96
2023-03-24T11:35:27.055Z,68.25
2023-03-24T11:39:04.152Z,66.83
2023-03-24T11:42:28.949Z,65.88
2023-03-24T11:46:02.369Z,66.01
2023-03-24T11:49:34.944Z,66.25
2023-03-24T11:53:07.663Z,66.53
2023-03-24T11:56:46.504Z,65.98
2023-03-24T12:00:27.944Z,66.02
2023-03-24T12:04:26.294Z,63.23
2023-03-24T12:08:02.967Z,62.94
2023-03-24T12:11:59.584Z,61.55
2023-03-24T12:16:04.530Z,60.50
2023-03-24T12:19:51.934Z,60.71
2023-03-24T12:23:32.883Z,60.85
2023-03-24T12:27:01.187Z,59.85
2023-03-24T12:30:56.533Z,60.45
2023-03-24T12:34:54.642Z,59.75
2023-03-24T12:38:24.036Z,58.27
2023-03-24T12:42:17.391Z,58.15
2023-03-24T12:45:53.297Z,59.18
2023-03-24T12:49:31.045Z,59.27
2023-03-24T12:53:17.962Z,58.68
2023-03-24T12:56:54.968Z,57.56
2023-03-24T13:00:19.454Z,56.83
2023-03-24T13:03:48.739Z,57.15
2023-03-24T13:07:14.865Z,57.06
2023-03-24T13:10:40.923Z,57.93
2023-03-24T13:14:10.436Z,57.51
2023-03-24T13:17:40.761Z,56.60
2023-03-24T13:21:11.723Z,57.14
2023-03-24T13:24:35.909Z,57.10
2023-03-24T13:28:06.022Z,56.49
2023-03-24T13:31:35.832Z,56.28
2023-03-24T13:35:26.198Z,56.22
2023-03-24T13:39:01.089Z,56.34
2023-03-24T13:42:37.042Z,55.70
2023-03-24T13:46:10.811Z,54.05
2023-03-24T13:49:35.795Z,53.83
2023-03-24T13:53:07.931Z,54.93
2023-03-24T13:56:36.132Z,55.40
2023-03-24T14:00:11.891Z,55.60
2023-03-24T14:03:44.510Z,55.84
2023-03-24T14:07:32.111Z,56.93
2023-03-24T14:10:56.572Z,57.09
2023-03-24T14:14:22.374Z,56.84
2023-03-24T14:17:48.940Z,57.68
2023-03-24T14:21:12.875Z,58.18
2023-03-24T14:24:37.204Z,57.85
2023-03-24T14:28:22.301Z,58.05
2023-03-24T14:32:02.350Z,58.55
2023-03-24T14:35:35.689Z,58.51
2023-03-24T14:39:12.509Z,58.49
2023-03-24T14:42:36.361Z,58.31
2023-03-24T14:46:06.545Z,59.04
2023-03-24T14:49:32.975Z,59.03
2023-03-24T14:53:02.133Z,59.40
2023-03-24T14:56:39.485Z,59.62
2023-03-24T15:00:19.734Z,59.69
2023-03-24T15:04:05.256Z,60.44
2023-03-24T15:07:29.103Z,61.01
2023-03-24T15:11:04.225Z,61.38
2023-03-24T15:14:28.745Z,61.70
2023-03-24T15:17:53.665Z,62.24
2023-03-24T15:21:22.795Z,62.39
2023-03-24T15:24:52.221Z,63.13
2023-03-24T15:28:22.608Z,63.64
2023-03-24T15:31:46.786Z,64.21
2023-03-24T15:35:16.647Z,64.80
2023-03-24T15:38:47.330Z,65.17
2023-03-24T15:42:18.561Z,65.31
2023-03-24T15:46:04.841Z,66.02
2023-03-24T15:49:37.237Z,66.21
2023-03-24T15:53:04.289Z,66.66
2023-03-24T15:56:31.711Z,66.31
2023-03-24T16:00:01.319Z,65.76
2023-03-24T16:03:26.882Z,65.43
2023-03-24T16:06:54.299Z,64.96
2023-03-24T16:10:33.818Z,64.82
2023-03-24T16:13:59.087Z,64.88
2023-03-24T16:17:23.049Z,64.82
2023-03-24T16:20:47.038Z,64.96
2023-03-24T16:24:11.386Z,65.06
2023-03-24T16:27:35.267Z,65.34
2023-03-24T16:31:04.320Z,65.16
2023-03-24T16:34:28.559Z,65.03
2023-03-24T16:37:52.435Z,65.16
2023-03-24T16:41:17.028Z,65.32
2023-03-24T16:44:40.915Z,65.52
2023-03-24T16:48:05.131Z,65.31
2023-03-24T16:51:29.895Z,64.99
2023-03-24T16:54:54.697Z,65.20
2023-03-24T16:58:19.113Z,65.52
2023-03-24T17:01:46.591Z,65.69
2023-03-24T17:05:38.235Z,66.03
2023-03-24T17:09:02.063Z,66.30
2023-03-24T17:12:26.160Z,66.96
2023-03-24T17:15:50.676Z,67.04
2023-03-24T17:19:17.591Z,67.50
2023-03-24T17:22:45.876Z,67.58
2023-03-24T17:26:09.751Z,68.14
2023-03-24T17:29:33.602Z,68.24
2023-03-24T17:32:58.384Z,68.42
2023-03-24T17:36:22.337Z,68.72
2023-03-24T17:39:46.127Z,69.13
2023-03-24T17:43:10.145Z,69.09
2023-03-24T17:46:35.011Z,69.17
2023-03-24T17:49:59.134Z,69.40
2023-03-24T17:53:25.863Z,69.80
2023-03-24T17:56:49.936Z,69.87
2023-03-24T18:00:16.516Z,70.10
2023-03-24T18:03:40.699Z,70.53
2023-03-24T18:07:05.005Z,70.75
2023-03-24T18:10:28.799Z,71.09
2023-03-24T18:13:52.769Z,71.25
2023-03-24T18:17:16.899Z,71.35
2023-03-24T18:20:41.272Z,71.61
2023-03-24T18:24:06.965Z,71.87
2023-03-24T18:27:31.356Z,71.72
2023-03-24T18:30:56.958Z,72.05
2023-03-24T18:34:22.182Z,72.02
2023-03-24T18:37:47.394Z,72.06
2023-03-24T18:41:13.040Z,71.81
2023-03-24T18:44:37.064Z,72.26
2023-03-24T18:48:01.119Z,72.18
2023-03-24T18:51:26.914Z,72.26
2023-03-24T18:54:51.250Z,72.22
2023-03-24T18:58:16.076Z,72.20
2023-03-24T19:01:40.173Z,72.43
2023-03-24T19:05:05.323Z,72.26
2023-03-24T19:08:29.521Z,72.52
2023-03-24T19:11:53.362Z,72.30
2023-03-24T19:15:18.440Z,72.22
2023-03-24T19:18:42.452Z,72.19
2023-03-24T19:22:07.572Z,72.15
2023-03-24T19:25:31.902Z,72.20
2023-03-24T19:28:55.713Z,72.43
2023-03-24T19:32:19.604Z,72.32
2023-03-24T19:35:43.667Z,72.26
2023-03-24T19:39:07.742Z,72.46
2023-03-24T19:42:33.317Z,72.48
2023-03-24T19:46:03.776Z,72.66
2023-03-24T19:49:27.912Z,72.83
2023-03-24T19:52:52.058Z,72.84
2023-03-24T19:56:17.508Z,73.23
2023-03-24T19:59:41.403Z,73.38
2023-03-24T20:03:05.878Z,73.38
2023-03-24T20:06:30.447Z,73.64
2023-03-24T20:09:54.378Z,74.01
2023-03-24T20:13:18.658Z,74.28
2023-03-24T20:16:43.904Z,74.36
2023-03-24T20:20:10.420Z,74.12
2023-03-24T20:23:36.668Z,74.20
2023-03-24T20:27:00.942Z,74.40
2023-03-24T20:30:26.457Z,74.53
2023-03-24T20:33:50.394Z,74.47
2023-03-24T20:37:15.648Z,74.84
2023-03-24T20:40:39.624Z,76.03
2023-03-24T20:44:03.480Z,77.12
2023-03-24T20:47:27.511Z,78.66
2023-03-24T20:50:52.908Z,80.76
2023-03-24T20:54:17.085Z,82.95
2023-03-24T20:57:43.870Z,83.68
2023-03-24T21:01:22.328Z,84.99
2023-03-24T21:04:46.252Z,86.07
2023-03-24T21:08:10.315Z,87.36
2023-03-24T21:11:34.828Z,88.61
2023-03-24T21:14:58.716Z,90.31
2023-03-24T21:18:22.513Z,90.56
2023-03-24T21:21:49.530Z,92.49
2023-03-24T21:25:13.563Z,93.31
2023-03-24T21:28:37.504Z,94.43
2023-03-24T21:32:01.734Z,95.30
2023-03-24T21:35:26.183Z,96.06
2023-03-24T21:38:54.138Z,96.50
2023-03-24T21:42:19.532Z,97.00
2023-03-24T21:45:46.500Z,97.45
2023-03-24T21:49:11.274Z,97.44
2023-03-24T21:52:43.431Z,97.97
2023-03-24T21:56:09.352Z,98.50
2023-03-24T21:59:40.604Z,98.55
2023-03-24T22:03:05.741Z,99.24
2023-03-24T22:06:29.869Z,100.00
2023-03-24T22:09:54.455Z,100.00
2023-03-24T22:13:20.891Z,100.00
2023-03-24T22:16:44.723Z,100.00
2023-03-24T22:20:09.770Z,100.00
2023-03-24T22:23:36.788Z,100.00
2023-03-24T22:27:02.289Z,100.00
2023-03-24T22:30:26.229Z,100.00
2023-03-24T22:33:50.619Z,100.00
2023-03-24T22:37:14.603Z,100.00
2023-03-24T22:40:39.062Z,100.00
2023-03-24T22:44:02.982Z,100.00
2023-03-24T22:47:27.485Z,100.00
2023-03-24T22:50:52.131Z,100.00
2023-03-24T22:54:16.023Z,100.00
2023-03-24T22:57:39.868Z,100.00
2023-03-24T23:01:03.893Z,100.00
2023-03-24T23:04:27.889Z,100.00
2023-03-24T23:07:51.724Z,100.00
2023-03-24T23:11:15.654Z,100.00
2023-03-24T23:14:39.437Z,100.00
2023-03-24T23:18:03.592Z,100.00
2023-03-24T23:21:28.508Z,100.00
2023-03-24T23:25:01.975Z,100.00
2023-03-24T23:28:27.093Z,100.00
2023-03-24T23:31:51.081Z,100.00
2023-03-24T23:35:15.676Z,100.00
2023-03-24T23:38:50.630Z,100.00
2023-03-24T23:42:14.478Z,100.00
2023-03-24T23:45:38.664Z,100.00
2023-03-24T23:49:02.510Z,100.00
2023-03-24T23:52:28.420Z,100.00
2023-03-24T23:55:57.421Z,100.00
2023-03-24T23:59:23.115Z,100.00
